Time;durP1;ratioP1;P1;durP2;ratioP2;P2;SDS_P1;SDS_P2;PMS_P1;PMS_P2;Temp;Humidity;BMP_temperature;BMP_pressure;BME280_temperature;BME280_humidity;BME280_pressure;Samples;Min_cycle;Max_cycle;Signal;HPM_P1;HPM_P2
2022/08/22 00:00:35;;;;;;;;;;;16.30;99.90;;;;;;6220744;23;20246;-69
2022/08/22 00:03:13;;;;;;;;;;;16.20;99.90;;;;;;6220471;23;20009;-68
2022/08/22 00:05:58;;;;;;;;;;;16.20;99.90;;;;;;6196058;23;20012;-69
2022/08/22 00:08:48;;;;;;;;;;;16.20;99.90;;;;;;6193364;23;19919;-68
2022/08/22 00:11:21;;;;;;;;;;;16.20;99.90;;;;;;6179688;23;19920;-68
2022/08/22 00:13:54;;;;;;;;;;;16.10;99.90;;;;;;6246802;23;20227;-68
2022/08/22 00:16:28;;;;;;;;;;;16.10;99.90;;;;;;6220727;23;19927;-68
2022/08/22 00:19:04;;;;;;;;;;;16.10;99.90;;;;;;6219553;23;19962;-68
2022/08/22 00:21:56;;;;;;;;;;;16.10;99.90;;;;;;6220486;23;19920;-69
2022/08/22 00:24:32;;;;;;;;;;;16.10;99.90;;;;;;6241720;23;19927;-68
2022/08/22 00:27:01;;;;;;;;;;;16.10;99.90;;;;;;6220164;23;19919;-69
2022/08/22 00:29:41;;;;;;;;;;;16.10;99.90;;;;;;6194563;23;19924;-68
2022/08/22 00:32:07;;;;;;;;;;;16.10;99.90;;;;;;6218579;23;19923;-69
2022/08/22 00:34:33;;;;;;;;;;;16.00;99.90;;;;;;6219622;23;19967;-68
2022/08/22 00:37:01;;;;;;;;;;;16.00;99.90;;;;;;6246475;22;20335;-69
2022/08/22 00:39:37;;;;;;;;;;;16.00;99.90;;;;;;6220049;23;20302;-68
2022/08/22 00:42:06;;;;;;;;;;;16.00;99.90;;;;;;6246920;23;19959;-68
2022/08/22 00:44:38;;;;;;;;;;;15.90;99.90;;;;;;6245325;23;20330;-69
2022/08/22 00:47:18;;;;;;;;;;;15.90;99.90;;;;;;6220007;23;20346;-68
2022/08/22 00:49:51;;;;;;;;;;;15.80;99.90;;;;;;6220119;23;20349;-69
2022/08/22 00:52:23;;;;;;;;;;;15.80;99.90;;;;;;6246035;23;19919;-68
2022/08/22 00:54:55;;;;;;;;;;;15.80;99.90;;;;;;6220395;23;19955;-69
2022/08/22 00:57:23;;;;;;;;;;;15.70;99.90;;;;;;6219908;23;19920;-67
2022/08/22 00:59:52;;;;;;;;;;;15.70;99.90;;;;;;6217874;23;19970;-69
2022/08/22 01:02:20;;;;;;;;;;;15.70;99.90;;;;;;6219638;23;19923;-68
2022/08/22 01:04:46;;;;;;;;;;;15.60;99.90;;;;;;6219623;23;20339;-70
2022/08/22 01:07:24;;;;;;;;;;;15.60;99.90;;;;;;6219357;23;19927;-68
2022/08/22 01:10:09;;;;;;;;;;;15.60;99.90;;;;;;6219855;23;19990;-68
2022/08/22 01:12:34;;;;;;;;;;;15.50;99.90;;;;;;6219768;23;19926;-70
2022/08/22 01:15:04;;;;;;;;;;;15.50;99.90;;;;;;6246315;23;19919;-68
2022/08/22 01:17:48;;;;;;;;;;;15.40;99.90;;;;;;6219076;23;19962;-68
2022/08/22 01:20:26;;;;;;;;;;;15.40;99.90;;;;;;6219909;23;19942;-68
2022/08/22 01:22:58;;;;;;;;;;;15.40;99.90;;;;;;6220577;23;19919;-69
2022/08/22 01:25:42;;;;;;;;;;;15.40;99.90;;;;;;6219370;23;19962;-68
2022/08/22 01:28:08;;;;;;;;;;;15.40;99.90;;;;;;6246433;22;19990;-69
2022/08/22 01:30:36;;;;;;;;;;;15.30;99.90;;;;;;6246164;23;20354;-68
2022/08/22 01:33:08;;;;;;;;;;;15.30;99.90;;;;;;6219217;23;19923;-68
2022/08/22 01:35:43;;;;;;;;;;;15.30;99.90;;;;;;6245228;23;19995;-68
2022/08/22 01:38:15;;;;;;;;;;;15.20;99.90;;;;;;6244742;23;19919;-68
2022/08/22 01:40:56;;;;;;;;;;;15.20;99.90;;;;;;6219700;23;20332;-67
2022/08/22 01:43:41;;;;;;;;;;;15.20;99.90;;;;;;6221635;23;19958;-67
2022/08/22 01:46:15;;;;;;;;;;;15.10;99.90;;;;;;6221655;23;19930;-69
2022/08/22 01:48:50;;;;;;;;;;;15.10;99.90;;;;;;6248328;22;19923;-69
2022/08/22 01:51:20;;;;;;;;;;;15.00;99.90;;;;;;6196230;23;19920;-68
2022/08/22 01:54:04;;;;;;;;;;;15.10;99.90;;;;;;6248658;23;20262;-68
2022/08/22 01:56:37;;;;;;;;;;;15.10;99.90;;;;;;6222016;23;19924;-70
2022/08/22 01:59:13;;;;;;;;;;;15.00;99.90;;;;;;6221446;23;19990;-68
2022/08/22 02:01:45;;;;;;;;;;;15.00;99.90;;;;;;6221957;23;19926;-69
2022/08/22 02:04:29;;;;;;;;;;;14.90;99.90;;;;;;6221660;23;19958;-68
2022/08/22 02:07:04;;;;;;;;;;;14.90;99.90;;;;;;6220957;22;19919;-68
2022/08/22 02:09:35;;;;;;;;;;;14.80;99.90;;;;;;6248341;23;19926;-69
2022/08/22 02:12:09;;;;;;;;;;;14.80;99.90;;;;;;6221060;23;19920;-68
2022/08/22 02:14:55;;;;;;;;;;;14.80;99.90;;;;;;6221486;23;19920;-67
2022/08/22 02:17:34;;;;;;;;;;;14.70;99.90;;;;;;6170979;23;20167;-68
2022/08/22 02:20:11;;;;;;;;;;;14.70;99.90;;;;;;6190967;23;19971;-69
2022/08/22 02:22:55;;;;;;;;;;;14.70;99.90;;;;;;6191047;23;19995;-69
2022/08/22 02:25:24;;;;;;;;;;;14.70;99.90;;;;;;6166149;23;19916;-68
2022/08/22 02:27:53;;;;;;;;;;;14.70;99.90;;;;;;6191917;23;19962;-68
2022/08/22 02:30:39;;;;;;;;;;;14.70;99.90;;;;;;6195931;23;19994;-68
2022/08/22 02:33:11;;;;;;;;;;;14.70;99.90;;;;;;6202987;23;19920;-67
2022/08/22 02:35:41;;;;;;;;;;;14.70;99.90;;;;;;6202264;23;20227;-68
2022/08/22 02:38:06;;;;;;;;;;;14.70;99.90;;;;;;6166272;23;19931;-68
2022/08/22 02:40:38;;;;;;;;;;;14.60;99.90;;;;;;6191108;23;19920;-68
2022/08/22 02:43:17;;;;;;;;;;;14.60;99.90;;;;;;6191042;23;19974;-69
2022/08/22 02:45:56;;;;;;;;;;;14.60;99.90;;;;;;6191054;23;19920;-69
2022/08/22 02:48:30;;;;;;;;;;;14.50;99.90;;;;;;6217093;23;20331;-68
2022/08/22 02:50:59;;;;;;;;;;;14.40;99.90;;;;;;6191186;23;19919;-68
2022/08/22 02:53:37;;;;;;;;;;;14.40;99.90;;;;;;6190843;23;19920;-68
2022/08/22 02:56:06;;;;;;;;;;;14.40;99.90;;;;;;6190615;23;19924;-68
2022/08/22 02:58:35;;;;;;;;;;;14.30;99.90;;;;;;6190694;23;19920;-69
2022/08/22 03:01:01;;;;;;;;;;;14.30;99.90;;;;;;6215612;23;19959;-69
2022/08/22 03:03:30;;;;;;;;;;;14.30;99.90;;;;;;6190520;23;19924;-67
2022/08/22 03:05:59;;;;;;;;;;;14.30;99.90;;;;;;6190802;23;19975;-68
2022/08/22 03:08:33;;;;;;;;;;;14.30;99.90;;;;;;6190706;23;19959;-68
2022/08/22 03:11:05;;;;;;;;;;;14.40;99.90;;;;;;6190787;23;20323;-68
2022/08/22 03:13:40;;;;;;;;;;;14.40;99.90;;;;;;6217400;23;19920;-68
2022/08/22 03:16:12;;;;;;;;;;;14.40;99.90;;;;;;6217382;23;19920;-67
2022/08/22 03:18:47;;;;;;;;;;;14.40;99.90;;;;;;6190053;23;19959;-68
2022/08/22 03:21:45;;;;;;;;;;;14.40;99.90;;;;;;6217285;23;19927;-69
2022/08/22 03:24:21;;;;;;;;;;;14.50;99.90;;;;;;6150181;23;19924;-69
2022/08/22 03:26:49;;;;;;;;;;;14.50;99.90;;;;;;6190724;23;19924;-68
2022/08/22 03:29:21;;;;;;;;;;;14.50;99.90;;;;;;6217212;23;19955;-68
2022/08/22 03:32:06;;;;;;;;;;;14.50;99.90;;;;;;6190671;23;19924;-67
2022/08/22 03:34:32;;;;;;;;;;;14.50;99.90;;;;;;6165709;23;19970;-68
2022/08/22 03:36:57;;;;;;;;;;;14.40;99.90;;;;;;6190432;23;20242;-68
2022/08/22 03:39:36;;;;;;;;;;;14.40;99.90;;;;;;6190395;23;19959;-68
2022/08/22 03:42:01;;;;;;;;;;;14.30;99.90;;;;;;6217134;23;19920;-69
2022/08/22 03:44:30;;;;;;;;;;;14.30;99.90;;;;;;6217077;23;20039;-69
2022/08/22 03:47:02;;;;;;;;;;;14.30;99.90;;;;;;6190353;23;20250;-68
2022/08/22 03:49:31;;;;;;;;;;;14.30;99.90;;;;;;6215247;23;19927;-69
2022/08/22 03:52:07;;;;;;;;;;;14.30;99.90;;;;;;6190453;23;19924;-70
2022/08/22 03:54:56;;;;;;;;;;;14.30;99.90;;;;;;6217037;23;20300;-69
2022/08/22 03:57:38;;;;;;;;;;;14.30;99.90;;;;;;6190404;23;19972;-68
2022/08/22 04:00:19;;;;;;;;;;;14.20;99.90;;;;;;6216597;23;20356;-69
2022/08/22 04:02:57;;;;;;;;;;;14.20;99.90;;;;;;6215576;23;19919;-69
2022/08/22 04:05:32;;;;;;;;;;;14.10;99.90;;;;;;6189974;23;19967;-69
2022/08/22 04:08:03;;;;;;;;;;;14.10;99.90;;;;;;6190145;23;19927;-68
2022/08/22 04:10:38;;;;;;;;;;;14.00;99.90;;;;;;6190166;23;19920;-67
2022/08/22 04:13:07;;;;;;;;;;;14.00;99.90;;;;;;6215545;23;19920;-69
2022/08/22 04:16:00;;;;;;;;;;;14.00;99.90;;;;;;6190131;23;19920;-69
2022/08/22 04:18:44;;;;;;;;;;;14.00;99.90;;;;;;6164569;23;19927;-68
2022/08/22 04:21:15;;;;;;;;;;;14.00;99.90;;;;;;6165557;23;19920;-69
2022/08/22 04:23:59;;;;;;;;;;;13.90;99.90;;;;;;6216731;23;19926;-69
2022/08/22 04:26:28;;;;;;;;;;;13.90;99.90;;;;;;6165418;23;19923;-69
2022/08/22 04:29:14;;;;;;;;;;;13.90;99.90;;;;;;6190136;23;19920;-68
2022/08/22 04:31:46;;;;;;;;;;;13.90;99.90;;;;;;6190121;23;20342;-68
2022/08/22 04:34:15;;;;;;;;;;;13.90;99.90;;;;;;6190073;23;19927;-69
2022/08/22 04:36:50;;;;;;;;;;;13.90;99.90;;;;;;6190089;23;19927;-69
2022/08/22 04:39:22;;;;;;;;;;;13.90;99.90;;;;;;6164958;23;20011;-69
2022/08/22 04:41:54;;;;;;;;;;;13.90;99.90;;;;;;6216586;23;20220;-69
2022/08/22 04:44:31;;;;;;;;;;;13.90;99.90;;;;;;6190033;23;20327;-69
2022/08/22 04:47:17;;;;;;;;;;;13.90;99.90;;;;;;6189388;23;19927;-69
2022/08/22 04:50:03;;;;;;;;;;;13.90;99.90;;;;;;6193471;23;19927;-69
2022/08/22 04:52:47;;;;;;;;;;;13.90;99.90;;;;;;6189946;23;20255;-69
2022/08/22 04:55:20;;;;;;;;;;;13.90;99.90;;;;;;6165215;23;19920;-69
2022/08/22 04:58:04;;;;;;;;;;;13.90;99.90;;;;;;6189797;23;19920;-69
2022/08/22 05:00:50;;;;;;;;;;;13.90;99.90;;;;;;6189868;23;19920;-70
2022/08/22 05:03:17;;;;;;;;;;;13.90;99.90;;;;;;6187754;23;19920;-69
2022/08/22 05:05:44;;;;;;;;;;;13.90;99.90;;;;;;6165019;23;19955;-69
2022/08/22 05:08:12;;;;;;;;;;;13.90;99.90;;;;;;6189878;23;19920;-69
2022/08/22 05:10:40;;;;;;;;;;;13.90;99.90;;;;;;6216371;23;20018;-68
2022/08/22 05:13:08;;;;;;;;;;;14.00;99.90;;;;;;6189690;23;20290;-69
2022/08/22 05:15:40;;;;;;;;;;;14.00;99.90;;;;;;6165725;23;20224;-69
2022/08/22 05:28:18;;;;;;;;;;;14.00;99.90;;;;;;6196056;23;19927;-79
2022/08/22 06:21:37;;;;;;;;;;;14.50;99.90;;;;;;6187727;23;19927;-71
2022/08/22 06:24:08;;;;;;;;;;;14.50;99.90;;;;;;6212257;23;19924;-76
2022/08/22 06:26:39;;;;;;;;;;;14.50;99.90;;;;;;6160724;23;19924;-73
2022/08/22 06:29:06;;;;;;;;;;;14.50;99.90;;;;;;6186323;23;19916;-76
2022/08/22 06:31:38;;;;;;;;;;;14.50;99.90;;;;;;6136886;23;19963;-76
2022/08/22 06:34:14;;;;;;;;;;;14.50;99.90;;;;;;6161354;23;20323;-74
2022/08/22 06:36:43;;;;;;;;;;;14.60;99.90;;;;;;6136722;23;19920;-76
2022/08/22 06:39:08;;;;;;;;;;;14.60;99.90;;;;;;6135960;23;19921;-74
2022/08/22 06:41:46;;;;;;;;;;;14.60;99.90;;;;;;6160981;23;19928;-74
2022/08/22 06:44:14;;;;;;;;;;;14.70;99.90;;;;;;6160938;23;19923;-73
2022/08/22 06:46:42;;;;;;;;;;;14.80;99.90;;;;;;6160776;23;19916;-74
2022/08/22 06:49:08;;;;;;;;;;;14.70;99.90;;;;;;6160838;23;19973;-75
2022/08/22 06:51:35;;;;;;;;;;;14.90;99.90;;;;;;6111847;23;20335;-75
2022/08/22 06:54:04;;;;;;;;;;;15.20;99.90;;;;;;6160775;23;20301;-74
2022/08/22 06:56:34;;;;;;;;;;;15.50;99.90;;;;;;6136476;23;20327;-76
2022/08/22 06:59:01;;;;;;;;;;;15.90;99.90;;;;;;6160867;23;19924;-76
2022/08/22 07:01:33;;;;;;;;;;;16.30;99.90;;;;;;6187350;23;20330;-75
2022/08/22 07:04:04;;;;;;;;;;;16.80;99.90;;;;;;6160738;23;20006;-75
2022/08/22 07:06:41;;;;;;;;;;;17.20;99.90;;;;;;6136430;23;20006;-75
2022/08/22 07:09:27;;;;;;;;;;;17.60;99.90;;;;;;6136173;23;19924;-75
2022/08/22 07:11:55;;;;;;;;;;;18.00;99.90;;;;;;6134481;23;20320;-75
2022/08/22 07:14:29;;;;;;;;;;;18.30;99.90;;;;;;6136336;23;20345;-76
2022/08/22 07:16:59;;;;;;;;;;;18.50;99.90;;;;;;6210813;23;20251;-75
2022/08/22 07:19:27;;;;;;;;;;;18.70;99.90;;;;;;6160171;23;19962;-75
2022/08/22 07:21:53;;;;;;;;;;;18.90;99.90;;;;;;6160036;23;19954;-76
2022/08/22 07:24:21;;;;;;;;;;;18.90;99.90;;;;;;6136296;23;19985;-75
2022/08/22 07:26:49;;;;;;;;;;;18.80;99.90;;;;;;6160746;23;19962;-75
2022/08/22 07:29:26;;;;;;;;;;;19.10;99.90;;;;;;6160689;23;19921;-74
2022/08/22 07:31:56;;;;;;;;;;;19.10;99.90;;;;;;6160688;23;19920;-75
2022/08/22 07:34:39;;;;;;;;;;;19.20;99.90;;;;;;6136172;23;19926;-73
2022/08/22 07:37:07;;;;;;;;;;;19.40;99.90;;;;;;6160713;23;20309;-75
2022/08/22 07:39:43;;;;;;;;;;;19.60;99.90;;;;;;6159852;23;19920;-75
2022/08/22 07:42:09;;;;;;;;;;;19.70;99.90;;;;;;6136158;23;20251;-76
2022/08/22 07:44:40;;;;;;;;;;;20.00;99.90;;;;;;6185741;23;19927;-78
2022/08/22 07:54:13;;;;;;;;;;;20.50;99.90;;;;;;6073335;23;20566;-77
2022/08/22 08:18:36;;;;;;;;;;;21.20;99.90;;;;;;6012390;23;20001;-74
2022/08/22 08:21:48;;;;;;;;;;;;;;;;;;;;;
2022/08/22 08:24:32;;;;;;;;;;;21.60;99.90;;;;;;6004183;23;19925;-73
2022/08/22 08:30:22;;;;;;;;;;;21.60;99.90;;;;;;6036524;23;19916;-71
2022/08/22 08:43:27;;;;;;;;;;;21.90;99.90;;;;;;6001350;23;19975;-78
2022/08/22 08:52:32;;;;;;;;;;;22.10;99.90;;;;;;6244057;23;19930;-71
2022/08/22 09:07:44;;;;;;;;;;;22.40;99.90;;;;;;6200214;22;20337;-75
2022/08/22 09:27:17;;;;;;;;;;;22.60;99.90;;;;;;6185142;22;19922;-80
2022/08/22 09:52:35;;;;;;;;;;;22.80;99.90;;;;;;6074801;23;19918;-82
2022/08/22 10:04:18;;;;;;;;;;;23.20;99.90;;;;;;6215959;22;19920;-75
2022/08/22 10:07:02;;;;;;;;;;;23.00;99.90;;;;;;6215209;23;19920;-76
2022/08/22 10:10:18;;;;;;;;;;;23.30;99.90;;;;;;6201096;23;19917;-77
2022/08/22 10:13:15;;;;;;;;;;;;;;;;;;;;;
2022/08/22 10:19:54;;;;;;;;;;;23.40;99.90;;;;;;6135065;23;20349;-80
2022/08/22 10:22:43;;;;;;;;;;;23.60;99.90;;;;;;6101856;23;19920;-83
2022/08/22 10:25:21;;;;;;;;;;;23.60;99.90;;;;;;6159676;23;19920;-78
2022/08/22 10:28:02;;;;;;;;;;;23.30;99.90;;;;;;6184953;23;19951;-82
2022/08/22 10:34:12;;;;;;;;;;;23.50;99.90;;;;;;6182816;23;19983;-84
2022/08/22 10:36:52;;;;;;;;;;;23.60;99.90;;;;;;6161123;23;20240;-77
2022/08/22 10:39:41;;;;;;;;;;;;;;;;;;;;;
2022/08/22 10:42:21;;;;;;;;;;;23.70;99.90;;;;;;6186600;23;20331;-81
2022/08/22 10:45:05;;;;;;;;;;;23.70;99.60;;;;;;6161189;23;19916;-79
2022/08/22 10:48:03;;;;;;;;;;;23.70;99.30;;;;;;6160944;23;20347;-78
2022/08/22 10:51:19;;;;;;;;;;;;;;;;;;;;;
2022/08/22 10:54:09;;;;;;;;;;;24.10;99.40;;;;;;6187308;23;19917;-81
2022/08/22 10:56:54;;;;;;;;;;;24.10;99.70;;;;;;6158853;23;19917;-76
2022/08/22 11:03:10;;;;;;;;;;;24.30;97.70;;;;;;6095769;23;19930;-81
2022/08/22 13:26:40;;;;;;;;;;;25.10;94.10;;;;;;6216103;23;19953;-81
2022/08/22 16:17:24;;;;;;;;;;;24.60;98.10;;;;;;6222586;23;20523;-82
2022/08/22 16:20:14;;;;;;;;;;;24.30;99.40;;;;;;6015679;23;19922;-80
2022/08/22 16:33:23;;;;;;;;;;;24.20;99.90;;;;;;6153961;23;19915;-82
2022/08/22 16:39:39;;;;;;;;;;;23.90;99.90;;;;;;6094685;23;20009;-78
2022/08/22 16:42:36;;;;;;;;;;;23.80;99.90;;;;;;6129358;23;20434;-80
2022/08/22 16:59:34;;;;;;;;;;;23.30;99.90;;;;;;5955577;23;19919;-83
2022/08/22 17:03:07;;;;;;;;;;;23.20;99.90;;;;;;5987374;23;20363;-81
2022/08/22 17:06:19;;;;;;;;;;;23.20;99.90;;;;;;5989641;23;19986;-84
2022/08/22 17:12:24;;;;;;;;;;;23.10;98.50;;;;;;6096500;23;20001;-79
2022/08/22 17:15:11;;;;;;;;;;;23.10;98.80;;;;;;6048666;23;19928;-80
2022/08/22 17:17:52;;;;;;;;;;;23.10;98.00;;;;;;6073664;23;19917;-82
2022/08/22 17:30:46;;;;;;;;;;;22.60;99.90;;;;;;6039460;23;19917;-81
2022/08/22 17:37:20;;;;;;;;;;;;;;;;;;;;;
2022/08/22 17:40:19;;;;;;;;;;;22.10;99.90;;;;;;6009151;23;19925;-71
2022/08/22 17:42:51;;;;;;;;;;;22.00;99.90;;;;;;6181138;23;19920;-71
2022/08/22 17:45:26;;;;;;;;;;;21.90;99.90;;;;;;6191836;23;19970;-70
2022/08/22 17:48:11;;;;;;;;;;;21.90;99.90;;;;;;6191929;23;19923;-70
2022/08/22 17:50:48;;;;;;;;;;;21.80;99.90;;;;;;6191429;23;19923;-70
2022/08/22 17:53:33;;;;;;;;;;;21.60;99.90;;;;;;6191702;23;19916;-71
2022/08/22 17:56:07;;;;;;;;;;;21.50;99.90;;;;;;6191412;23;19920;-70
2022/08/22 17:58:53;;;;;;;;;;;21.50;99.90;;;;;;6191461;23;20267;-71
2022/08/22 18:01:35;;;;;;;;;;;21.50;99.90;;;;;;6193706;23;19924;-71
2022/08/22 18:04:01;;;;;;;;;;;21.40;99.90;;;;;;6191217;23;20007;-69
2022/08/22 18:06:30;;;;;;;;;;;21.40;99.90;;;;;;6190743;23;19920;-72
2022/08/22 18:08:58;;;;;;;;;;;21.30;99.90;;;;;;6190173;23;19920;-76
2022/08/22 18:11:45;;;;;;;;;;;21.30;99.90;;;;;;6190855;23;19956;-72
2022/08/22 18:14:30;;;;;;;;;;;21.20;99.90;;;;;;6166072;23;19999;-72
2022/08/22 18:16:58;;;;;;;;;;;21.10;99.90;;;;;;6190608;23;19923;-71
2022/08/22 18:19:35;;;;;;;;;;;21.00;99.90;;;;;;6165993;23;19916;-71
2022/08/22 18:22:10;;;;;;;;;;;20.90;99.90;;;;;;6190518;23;20298;-74
2022/08/22 18:24:45;;;;;;;;;;;20.80;99.90;;;;;;6189616;23;19916;-70
2022/08/22 18:27:25;;;;;;;;;;;20.70;99.90;;;;;;6190916;23;20245;-71
2022/08/22 18:29:53;;;;;;;;;;;20.60;99.90;;;;;;6191508;23;19919;-70
2022/08/22 18:32:27;;;;;;;;;;;20.50;99.90;;;;;;6190998;23;19915;-70
2022/08/22 18:34:58;;;;;;;;;;;20.40;99.90;;;;;;6215948;23;19916;-70
2022/08/22 18:37:47;;;;;;;;;;;20.30;99.90;;;;;;6191019;23;19916;-71
2022/08/22 18:40:25;;;;;;;;;;;20.30;99.90;;;;;;6165589;23;19923;-68
2022/08/22 18:42:54;;;;;;;;;;;20.20;99.90;;;;;;6190814;23;20327;-68
2022/08/22 18:45:38;;;;;;;;;;;20.10;99.90;;;;;;6191036;23;19995;-70
2022/08/22 18:48:04;;;;;;;;;;;20.10;99.90;;;;;;6190602;23;19955;-70
2022/08/22 18:50:32;;;;;;;;;;;19.90;99.90;;;;;;6190452;23;20327;-70
2022/08/22 18:52:58;;;;;;;;;;;19.80;99.90;;;;;;6190581;23;19916;-69
2022/08/22 18:55:37;;;;;;;;;;;19.80;99.90;;;;;;6190322;23;20295;-70
2022/08/22 18:58:21;;;;;;;;;;;19.70;99.90;;;;;;6190442;23;20422;-70
2022/08/22 19:01:06;;;;;;;;;;;19.60;99.90;;;;;;6163447;23;19920;-70
2022/08/22 19:03:42;;;;;;;;;;;19.50;99.90;;;;;;6164598;23;19965;-71
2022/08/22 19:06:12;;;;;;;;;;;19.40;99.90;;;;;;6164833;23;19966;-70
2022/08/22 19:08:41;;;;;;;;;;;19.30;99.90;;;;;;6189384;23;19923;-71
2022/08/22 19:11:29;;;;;;;;;;;19.30;99.90;;;;;;6190575;23;19920;-72
2022/08/22 19:14:14;;;;;;;;;;;19.10;99.90;;;;;;6190155;23;19923;-70
2022/08/22 19:16:59;;;;;;;;;;;19.10;99.90;;;;;;6215652;23;20262;-70
2022/08/22 19:22:40;;;;;;;;;;;19.00;99.90;;;;;;6148820;23;19920;-71
2022/08/22 19:25:15;;;;;;;;;;;19.00;99.90;;;;;;6217001;23;19956;-71
2022/08/22 19:27:43;;;;;;;;;;;19.00;99.90;;;;;;6190531;23;19924;-70
2022/08/22 19:30:27;;;;;;;;;;;18.90;99.90;;;;;;6190882;23;19999;-73
2022/08/22 19:32:57;;;;;;;;;;;18.90;99.90;;;;;;6190656;23;20320;-71
2022/08/22 19:35:41;;;;;;;;;;;18.80;99.90;;;;;;6164610;23;19963;-69
2022/08/22 19:38:08;;;;;;;;;;;18.80;99.90;;;;;;6189777;23;19919;-70
2022/08/22 19:40:43;;;;;;;;;;;18.80;99.90;;;;;;6189931;23;19920;-69
2022/08/22 19:43:27;;;;;;;;;;;18.80;99.90;;;;;;6215189;23;19924;-69
2022/08/22 19:45:54;;;;;;;;;;;18.70;99.90;;;;;;6189479;23;19999;-69
2022/08/22 19:48:30;;;;;;;;;;;18.60;99.90;;;;;;6190283;23;20309;-69
2022/08/22 19:51:09;;;;;;;;;;;18.50;99.90;;;;;;6216670;23;19920;-69
2022/08/22 19:53:49;;;;;;;;;;;18.50;99.90;;;;;;6216758;23;19920;-69
2022/08/22 19:56:18;;;;;;;;;;;18.50;99.90;;;;;;6189596;23;19927;-72
2022/08/22 19:58:44;;;;;;;;;;;18.40;99.90;;;;;;6189583;23;19920;-70
2022/08/22 20:01:29;;;;;;;;;;;18.30;99.90;;;;;;6214533;23;19938;-71
2022/08/22 20:04:04;;;;;;;;;;;18.30;99.90;;;;;;6213709;23;19944;-71
2022/08/22 20:06:59;;;;;;;;;;;18.30;99.90;;;;;;6190293;23;19924;-72
2022/08/22 20:10:00;;;;;;;;;;;18.30;99.90;;;;;;6139831;23;19924;-70
2022/08/22 20:12:28;;;;;;;;;;;18.30;99.90;;;;;;6095158;23;19956;-69
2022/08/22 20:14:54;;;;;;;;;;;18.30;99.90;;;;;;6142490;23;19920;-72
2022/08/22 20:17:23;;;;;;;;;;;18.40;99.90;;;;;;6190067;23;19978;-70
2022/08/22 20:19:51;;;;;;;;;;;18.30;99.90;;;;;;6189536;23;19970;-71
2022/08/22 20:22:29;;;;;;;;;;;18.40;99.90;;;;;;6190117;23;19920;-70
2022/08/22 20:25:00;;;;;;;;;;;18.30;99.90;;;;;;6217854;23;19946;-70
2022/08/22 20:27:26;;;;;;;;;;;18.30;99.90;;;;;;6166249;23;19920;-71
2022/08/22 20:29:58;;;;;;;;;;;18.20;99.90;;;;;;6190953;23;19927;-72
2022/08/22 20:32:24;;;;;;;;;;;18.20;99.90;;;;;;6191473;23;19995;-71
2022/08/22 20:34:53;;;;;;;;;;;18.20;99.90;;;;;;6216232;23;19920;-72
2022/08/22 20:37:22;;;;;;;;;;;18.20;99.90;;;;;;6216193;23;20271;-71
2022/08/22 20:40:11;;;;;;;;;;;18.20;99.90;;;;;;6164181;23;19966;-73
2022/08/22 20:42:37;;;;;;;;;;;18.20;99.90;;;;;;6158679;23;20011;-71
2022/08/22 20:45:05;;;;;;;;;;;18.20;99.90;;;;;;6164545;23;20251;-72
2022/08/22 20:47:30;;;;;;;;;;;18.20;99.90;;;;;;6188706;23;19920;-73
2022/08/22 20:49:59;;;;;;;;;;;18.20;99.90;;;;;;6189077;23;19920;-73
2022/08/22 20:52:30;;;;;;;;;;;18.20;99.90;;;;;;6188961;23;19959;-72
2022/08/22 20:55:00;;;;;;;;;;;18.20;99.90;;;;;;6164445;23;19970;-72
2022/08/22 20:57:26;;;;;;;;;;;18.20;99.90;;;;;;6189303;23;19962;-72
2022/08/22 20:59:54;;;;;;;;;;;18.20;99.90;;;;;;6164084;23;19920;-76
2022/08/22 21:02:39;;;;;;;;;;;18.20;99.90;;;;;;6164127;23;19970;-76
2022/08/22 21:05:08;;;;;;;;;;;18.20;99.90;;;;;;6164031;23;20362;-75
2022/08/22 21:07:36;;;;;;;;;;;18.20;99.90;;;;;;6188733;23;19947;-75
2022/08/22 21:13:03;;;;;;;;;;;18.00;99.90;;;;;;6184109;23;19995;-74
2022/08/22 21:15:30;;;;;;;;;;;18.00;99.90;;;;;;6184565;23;20346;-76
2022/08/22 21:17:56;;;;;;;;;;;18.00;99.90;;;;;;6183946;23;19916;-74
2022/08/22 21:20:21;;;;;;;;;;;18.00;99.90;;;;;;6159986;23;20228;-73
2022/08/22 21:22:47;;;;;;;;;;;17.90;99.90;;;;;;6184799;23;19999;-76
2022/08/22 21:25:13;;;;;;;;;;;17.90;99.90;;;;;;6184429;23;19924;-76
2022/08/22 21:27:39;;;;;;;;;;;17.90;99.90;;;;;;6184295;23;19999;-77
2022/08/22 21:30:06;;;;;;;;;;;17.80;99.90;;;;;;6184323;23;19995;-73
2022/08/22 21:32:33;;;;;;;;;;;17.80;99.90;;;;;;6159852;23;19920;-71
2022/08/22 21:34:59;;;;;;;;;;;17.80;99.90;;;;;;6158526;23;19927;-73
2022/08/22 21:37:30;;;;;;;;;;;17.70;99.90;;;;;;6184862;23;19926;-72
2022/08/22 21:40:09;;;;;;;;;;;17.70;99.90;;;;;;6184615;23;19920;-71
2022/08/22 21:42:38;;;;;;;;;;;17.80;99.90;;;;;;6184343;23;19917;-80
2022/08/22 21:45:08;;;;;;;;;;;17.70;99.90;;;;;;6159840;23;19971;-81
2022/08/22 21:47:35;;;;;;;;;;;17.80;99.90;;;;;;6159940;23;19916;-80
2022/08/22 21:50:19;;;;;;;;;;;17.70;99.90;;;;;;6159926;23;19916;-80
2022/08/22 21:53:05;;;;;;;;;;;17.70;99.90;;;;;;6159701;23;19974;-79
2022/08/22 21:55:42;;;;;;;;;;;17.70;99.90;;;;;;6158700;23;19923;-80
2022/08/22 21:58:07;;;;;;;;;;;17.70;99.90;;;;;;6184749;23;19923;-80
2022/08/22 22:00:42;;;;;;;;;;;17.70;99.90;;;;;;6161270;23;19947;-81
2022/08/22 22:03:08;;;;;;;;;;;17.60;99.90;;;;;;6161634;23;19916;-80
2022/08/22 22:05:34;;;;;;;;;;;17.60;99.90;;;;;;6161441;23;19917;-79
2022/08/22 22:08:00;;;;;;;;;;;17.50;99.90;;;;;;6161721;23;19920;-80
2022/08/22 22:10:25;;;;;;;;;;;17.50;99.90;;;;;;6166243;23;19926;-82
2022/08/22 22:12:57;;;;;;;;;;;17.50;99.90;;;;;;6166823;23;19916;-80
2022/08/22 22:15:24;;;;;;;;;;;17.40;99.90;;;;;;6169975;23;19987;-81
2022/08/22 22:17:51;;;;;;;;;;;17.40;99.90;;;;;;6170320;23;19916;-81
2022/08/22 22:20:17;;;;;;;;;;;17.40;99.90;;;;;;6166401;23;19962;-82
2022/08/22 22:22:43;;;;;;;;;;;17.30;99.90;;;;;;6166562;23;19916;-81
2022/08/22 22:25:09;;;;;;;;;;;17.20;99.90;;;;;;6166424;23;19959;-79
2022/08/22 22:27:35;;;;;;;;;;;17.20;99.90;;;;;;6166436;23;19931;-81
2022/08/22 22:30:05;;;;;;;;;;;17.10;99.90;;;;;;6166465;23;19926;-81
2022/08/22 22:32:31;;;;;;;;;;;17.10;99.90;;;;;;6166589;23;19915;-79
2022/08/22 22:34:59;;;;;;;;;;;17.10;99.90;;;;;;6166415;23;19987;-80
2022/08/22 22:37:25;;;;;;;;;;;17.10;99.90;;;;;;6166357;23;20279;-80
2022/08/22 22:39:51;;;;;;;;;;;17.00;99.90;;;;;;6190954;23;19919;-79
2022/08/22 22:42:17;;;;;;;;;;;17.00;99.90;;;;;;6166174;23;20346;-80
2022/08/22 22:44:43;;;;;;;;;;;16.90;99.90;;;;;;6165848;23;19923;-79
2022/08/22 22:47:09;;;;;;;;;;;16.80;99.90;;;;;;6166096;23;20470;-82
2022/08/22 22:49:35;;;;;;;;;;;16.70;99.90;;;;;;6166189;23;19916;-81
2022/08/22 22:52:11;;;;;;;;;;;16.70;99.90;;;;;;6166435;23;20350;-82
2022/08/22 22:54:36;;;;;;;;;;;16.70;99.90;;;;;;6166548;23;19916;-82
2022/08/22 22:57:02;;;;;;;;;;;16.70;99.90;;;;;;6166115;23;20331;-81
2022/08/22 22:59:28;;;;;;;;;;;16.60;99.90;;;;;;6165970;23;19924;-80
2022/08/22 23:02:07;;;;;;;;;;;16.60;99.90;;;;;;6165973;23;19987;-80
2022/08/22 23:04:34;;;;;;;;;;;16.50;99.90;;;;;;6166034;23;19916;-79
2022/08/22 23:07:00;;;;;;;;;;;16.50;99.90;;;;;;6165832;23;19923;-80
2022/08/22 23:09:27;;;;;;;;;;;16.50;99.90;;;;;;6165186;23;20246;-80
2022/08/22 23:11:52;;;;;;;;;;;16.40;99.90;;;;;;6190875;23;19952;-80
2022/08/22 23:14:18;;;;;;;;;;;16.40;99.90;;;;;;6165997;23;19916;-81
2022/08/22 23:16:44;;;;;;;;;;;16.30;99.90;;;;;;6165715;23;19915;-80
2022/08/22 23:19:10;;;;;;;;;;;16.30;99.90;;;;;;6165820;23;20353;-80
2022/08/22 23:21:36;;;;;;;;;;;16.40;99.90;;;;;;6166029;23;19916;-80
2022/08/22 23:24:02;;;;;;;;;;;16.30;99.90;;;;;;6165802;23;19916;-79
2022/08/22 23:26:28;;;;;;;;;;;16.30;99.90;;;;;;6166260;23;19916;-79
2022/08/22 23:28:56;;;;;;;;;;;16.30;99.90;;;;;;6165728;23;19916;-78
2022/08/22 23:31:33;;;;;;;;;;;16.30;99.90;;;;;;6166047;23;19970;-80
2022/08/22 23:34:00;;;;;;;;;;;16.30;99.90;;;;;;6165203;23;19974;-80
2022/08/22 23:36:28;;;;;;;;;;;16.30;99.90;;;;;;6166240;23;19916;-80
2022/08/22 23:38:54;;;;;;;;;;;16.30;99.90;;;;;;6165746;23;19920;-80
2022/08/22 23:41:20;;;;;;;;;;;16.20;99.90;;;;;;6165825;23;19932;-79
2022/08/22 23:43:49;;;;;;;;;;;16.20;99.90;;;;;;6165774;23;19920;-78
2022/08/22 23:46:15;;;;;;;;;;;16.20;99.90;;;;;;6167523;23;19916;-80
2022/08/22 23:48:41;;;;;;;;;;;16.30;99.90;;;;;;6168970;23;19916;-79
2022/08/22 23:51:09;;;;;;;;;;;16.20;99.90;;;;;;6166398;23;19916;-78
2022/08/22 23:53:35;;;;;;;;;;;16.20;99.90;;;;;;6165982;23;19920;-81
2022/08/22 23:56:11;;;;;;;;;;;16.20;99.90;;;;;;6165756;23;20339;-81
2022/08/22 23:58:37;;;;;;;;;;;16.20;99.90;;;;;;6165742;23;20341;-81
